Time;durP1;ratioP1;P1;durP2;ratioP2;P2;SDS_P1;SDS_P2;PMS_P1;PMS_P2;Temp;Humidity;BMP_temperature;BMP_pressure;BME280_temperature;BME280_humidity;BME280_pressure;Samples;Min_cycle;Max_cycle;Signal;HPM_P1;HPM_P2
2022/03/04 00:00:55;;;;;;;9.32;6.50;;;-0.60;99.90;;;;;;480657;247;27411;-74
2022/03/04 00:02:56;;;;;;;9.40;6.43;;;-0.70;99.90;;;;;;480695;247;27527;-74
2022/03/04 00:04:58;;;;;;;9.23;6.40;;;-0.70;99.90;;;;;;480650;247;27961;-74
2022/03/04 00:06:59;;;;;;;11.98;6.37;;;-0.80;99.90;;;;;;480593;247;28038;-75
2022/03/04 00:09:00;;;;;;;8.07;6.40;;;-0.80;99.90;;;;;;480640;247;27446;-75
2022/03/04 00:11:02;;;;;;;9.93;6.80;;;-0.80;99.90;;;;;;480655;247;27406;-74
2022/03/04 00:13:03;;;;;;;10.80;6.93;;;-0.80;99.90;;;;;;480640;247;27513;-74
2022/03/04 00:15:04;;;;;;;8.30;6.65;;;-0.70;99.90;;;;;;480604;247;27479;-75
2022/03/04 00:17:05;;;;;;;10.35;6.32;;;-0.70;99.90;;;;;;480609;247;27450;-74
2022/03/04 00:19:07;;;;;;;7.72;6.25;;;-0.70;99.90;;;;;;480625;247;27600;-76
2022/03/04 00:21:08;;;;;;;8.52;6.20;;;-0.80;99.90;;;;;;480640;247;27478;-74
2022/03/04 00:23:09;;;;;;;10.27;6.72;;;-0.80;99.90;;;;;;480503;247;27973;-75
2022/03/04 00:25:10;;;;;;;9.25;6.53;;;-0.80;99.90;;;;;;480585;247;27957;-74
2022/03/04 00:27:11;;;;;;;10.45;6.60;;;-0.90;99.90;;;;;;480585;247;27473;-75
2022/03/04 00:29:13;;;;;;;8.63;6.78;;;-1.10;99.90;;;;;;480656;247;27449;-75
2022/03/04 00:31:14;;;;;;;9.70;6.50;;;-1.10;99.90;;;;;;480623;247;27407;-74
2022/03/04 00:33:15;;;;;;;9.90;6.50;;;-1.10;99.90;;;;;;480635;247;27450;-75
2022/03/04 00:35:16;;;;;;;12.05;7.82;;;-1.20;99.90;;;;;;480618;247;27430;-74
2022/03/04 00:37:18;;;;;;;11.18;8.05;;;-0.70;99.90;;;;;;480621;247;27449;-74
2022/03/04 00:39:19;;;;;;;12.57;8.20;;;-0.10;99.90;;;;;;480623;247;27541;-75
2022/03/04 00:41:20;;;;;;;12.57;9.73;;;0.40;99.90;;;;;;480635;246;27945;-74
2022/03/04 00:43:21;;;;;;;12.80;9.25;;;0.80;99.90;;;;;;480608;247;27929;-74
2022/03/04 00:45:23;;;;;;;14.25;9.05;;;0.80;99.90;;;;;;480628;247;27517;-75
2022/03/04 00:47:24;;;;;;;15.70;9.85;;;0.80;99.90;;;;;;480635;247;27415;-74
2022/03/04 00:49:25;;;;;;;13.38;9.07;;;0.90;99.90;;;;;;480632;247;27454;-74
2022/03/04 00:51:26;;;;;;;12.52;8.65;;;0.80;99.90;;;;;;480638;247;27482;-74
2022/03/04 00:53:28;;;;;;;15.75;9.27;;;0.70;99.90;;;;;;480624;247;27457;-74
2022/03/04 00:55:29;;;;;;;11.95;8.90;;;0.10;99.90;;;;;;480613;247;27438;-74
2022/03/04 00:57:30;;;;;;;13.90;8.77;;;-0.50;99.90;;;;;;480607;247;27415;-74
2022/03/04 00:59:32;;;;;;;12.30;8.55;;;-0.90;99.90;;;;;;480612;247;28044;-74
2022/03/04 01:01:33;;;;;;;10.40;8.48;;;-1.20;99.90;;;;;;480593;247;27907;-74
2022/03/04 01:03:34;;;;;;;8.43;7.55;;;-1.30;99.90;;;;;;480606;247;27450;-74
2022/03/04 01:05:35;;;;;;;9.90;8.27;;;-1.30;99.90;;;;;;480622;247;27450;-75
2022/03/04 01:07:37;;;;;;;13.73;8.20;;;-1.40;99.90;;;;;;480617;247;27419;-74
2022/03/04 01:09:38;;;;;;;11.48;8.20;;;-1.40;99.90;;;;;;480622;247;27537;-75
2022/03/04 01:11:39;;;;;;;11.30;7.37;;;-1.30;99.90;;;;;;480607;247;27497;-74
2022/03/04 01:13:40;;;;;;;10.40;6.70;;;-1.30;99.90;;;;;;480635;247;27558;-74
2022/03/04 01:15:42;;;;;;;8.20;7.00;;;-1.20;99.90;;;;;;480644;247;27981;-74
2022/03/04 01:17:43;;;;;;;8.85;6.60;;;-1.20;99.90;;;;;;480659;247;28094;-74
2022/03/04 01:19:44;;;;;;;8.15;6.65;;;-1.10;99.90;;;;;;480658;247;27900;-74
2022/03/04 01:21:45;;;;;;;6.53;5.43;;;-1.10;99.90;;;;;;480602;247;27409;-74
2022/03/04 01:23:47;;;;;;;8.75;6.80;;;-1.10;99.90;;;;;;480634;247;27509;-74
2022/03/04 01:25:52;;;;;;;8.98;6.80;;;-1.10;99.90;;;;;;480632;247;27531;-74
2022/03/04 01:27:49;;;;;;;7.15;6.20;;;-1.10;99.90;;;;;;480248;247;27565;-74
2022/03/04 01:29:50;;;;;;;7.75;6.18;;;-1.10;99.90;;;;;;480630;247;27529;-75
2022/03/04 01:31:52;;;;;;;10.68;6.72;;;-1.10;99.90;;;;;;480601;247;27501;-75
2022/03/04 01:33:53;;;;;;;7.37;6.10;;;-1.10;99.90;;;;;;480462;247;27589;-74
2022/03/04 01:35:54;;;;;;;8.13;6.30;;;-1.00;99.90;;;;;;480644;247;28072;-75
2022/03/04 01:37:55;;;;;;;10.07;6.25;;;-0.90;99.90;;;;;;480635;247;27954;-74
2022/03/04 01:39:57;;;;;;;9.43;7.07;;;-0.90;99.90;;;;;;480638;247;27446;-75
2022/03/04 01:41:58;;;;;;;10.02;7.72;;;-0.80;99.90;;;;;;480614;247;27478;-74
2022/03/04 01:43:59;;;;;;;8.05;6.80;;;-0.70;99.90;;;;;;480619;247;27468;-74
2022/03/04 01:46:00;;;;;;;11.07;7.20;;;-0.60;99.90;;;;;;480619;247;27565;-74
2022/03/04 01:48:02;;;;;;;11.55;7.53;;;-0.60;99.90;;;;;;480641;247;27411;-75
2022/03/04 01:50:03;;;;;;;10.88;6.93;;;-0.60;99.90;;;;;;480653;247;27458;-74
2022/03/04 01:52:04;;;;;;;9.45;6.75;;;-0.60;99.90;;;;;;480639;247;27930;-74
2022/03/04 01:54:05;;;;;;;8.20;6.90;;;-0.60;99.90;;;;;;480628;247;27914;-74
2022/03/04 01:56:07;;;;;;;8.98;7.65;;;-0.60;99.90;;;;;;480639;247;28076;-75
2022/03/04 01:58:08;;;;;;;7.25;6.35;;;-0.60;99.90;;;;;;480652;247;27395;-74
2022/03/04 02:00:09;;;;;;;7.07;6.37;;;-0.70;99.90;;;;;;480627;247;27544;-75
2022/03/04 02:02:10;;;;;;;7.93;6.32;;;-0.70;99.90;;;;;;480610;247;27486;-74
2022/03/04 02:04:12;;;;;;;7.10;6.12;;;-0.70;99.90;;;;;;480613;247;27521;-75
2022/03/04 02:06:13;;;;;;;8.40;5.85;;;-0.70;99.90;;;;;;480649;247;27466;-74
2022/03/04 02:08:14;;;;;;;9.07;6.25;;;-0.70;99.90;;;;;;480629;247;27401;-74
2022/03/04 02:10:15;;;;;;;6.30;5.70;;;-0.70;99.90;;;;;;480623;247;27557;-75
2022/03/04 02:12:17;;;;;;;6.43;5.70;;;-0.80;99.90;;;;;;480612;247;27851;-75
2022/03/04 02:14:18;;;;;;;7.18;5.80;;;-0.80;99.90;;;;;;480633;247;28008;-75
2022/03/04 02:16:19;;;;;;;8.15;5.95;;;-0.90;99.90;;;;;;480665;247;27933;-75
2022/03/04 02:18:21;;;;;;;7.28;5.50;;;-0.90;99.90;;;;;;480647;247;27481;-74
2022/03/04 02:20:25;;;;;;;6.35;5.45;;;-0.90;99.90;;;;;;480632;247;27521;-75
2022/03/04 02:22:26;;;;;;;6.40;4.72;;;-0.90;99.90;;;;;;480632;247;27441;-74
2022/03/04 02:24:27;;;;;;;6.70;5.80;;;-0.90;99.90;;;;;;480591;247;27854;-74
2022/03/04 02:26:28;;;;;;;6.62;6.03;;;-0.90;99.90;;;;;;480627;247;28024;-74
2022/03/04 02:28:29;;;;;;;5.70;5.20;;;-0.90;99.90;;;;;;480617;247;27944;-74
2022/03/04 02:30:31;;;;;;;5.55;5.05;;;-1.00;99.90;;;;;;480646;247;27402;-73
2022/03/04 02:32:32;;;;;;;7.30;5.93;;;-1.10;99.90;;;;;;480653;247;27442;-74
2022/03/04 02:34:33;;;;;;;7.32;6.00;;;-1.10;99.90;;;;;;480655;247;27457;-74
2022/03/04 02:36:34;;;;;;;7.40;6.28;;;-1.10;99.90;;;;;;481358;240;27403;-74
2022/03/04 02:38:36;;;;;;;8.27;6.57;;;-1.10;99.90;;;;;;484995;243;27799;-74
2022/03/04 02:40:37;;;;;;;7.70;5.90;;;-1.00;99.90;;;;;;485082;244;27433;-74
2022/03/04 02:42:38;;;;;;;8.10;6.30;;;-1.00;99.90;;;;;;485058;244;27432;-75
2022/03/04 02:44:39;;;;;;;11.27;7.85;;;-1.00;99.90;;;;;;485070;244;27853;-75
2022/03/04 02:46:41;;;;;;;10.73;6.70;;;-0.90;99.90;;;;;;485108;244;29185;-75
2022/03/04 02:48:42;;;;;;;10.75;8.75;;;-0.90;99.90;;;;;;485097;244;27802;-74
2022/03/04 02:50:43;;;;;;;12.35;8.60;;;-0.80;99.90;;;;;;485113;244;27585;-74
2022/03/04 02:52:44;;;;;;;13.55;9.43;;;-0.80;99.90;;;;;;485090;244;27532;-78
2022/03/04 02:54:46;;;;;;;14.05;9.65;;;-0.70;99.90;;;;;;485092;244;27394;-74
2022/03/04 02:56:47;;;;;;;12.55;9.40;;;-0.70;99.90;;;;;;485075;244;27531;-74
2022/03/04 02:58:48;;;;;;;12.85;8.73;;;-0.70;99.90;;;;;;485093;244;27505;-74
2022/03/04 03:00:50;;;;;;;13.60;8.95;;;-0.70;99.90;;;;;;485113;244;27914;-75
2022/03/04 03:02:51;;;;;;;13.98;8.20;;;-0.80;99.90;;;;;;485105;244;29109;-74
2022/03/04 03:04:52;;;;;;;14.02;8.55;;;-0.80;99.90;;;;;;485078;244;27458;-75
2022/03/04 03:06:53;;;;;;;11.85;8.00;;;-0.80;99.90;;;;;;485080;244;27537;-74
2022/03/04 03:08:55;;;;;;;15.43;8.82;;;-0.90;99.90;;;;;;485101;244;27850;-74
2022/03/04 03:10:56;;;;;;;13.62;9.23;;;-0.90;99.90;;;;;;485128;244;27401;-74
2022/03/04 03:12:57;;;;;;;14.30;9.63;;;-0.80;99.90;;;;;;485025;244;27428;-74
2022/03/04 03:14:58;;;;;;;14.48;9.35;;;-0.70;99.90;;;;;;485112;244;27862;-74
2022/03/04 03:17:00;;;;;;;18.77;10.75;;;-0.70;99.90;;;;;;485070;244;28028;-75
2022/03/04 03:19:01;;;;;;;16.80;9.77;;;-0.70;99.90;;;;;;485120;244;27434;-75
2022/03/04 03:21:02;;;;;;;16.27;9.93;;;-0.70;99.90;;;;;;485877;237;27606;-72
2022/03/04 03:23:03;;;;;;;14.18;9.20;;;-1.10;99.90;;;;;;476829;249;27645;-72
2022/03/04 03:25:05;;;;;;;14.70;9.25;;;-1.60;99.90;;;;;;476782;249;27585;-72
2022/03/04 03:27:06;;;;;;;13.75;9.07;;;-1.80;99.90;;;;;;476603;248;27957;-72
2022/03/04 03:29:09;;;;;;;12.40;8.90;;;-1.80;99.90;;;;;;476149;249;27583;-73
2022/03/04 03:31:09;;;;;;;10.57;8.27;;;-1.90;99.90;;;;;;476183;249;28016;-73
2022/03/04 03:33:11;;;;;;;12.00;7.93;;;-2.00;99.90;;;;;;476758;249;27512;-72
2022/03/04 03:35:12;;;;;;;12.77;8.48;;;-2.00;99.90;;;;;;476787;249;27542;-72
2022/03/04 03:37:13;;;;;;;12.18;7.65;;;-2.10;99.90;;;;;;476834;249;28211;-74
2022/03/04 03:39:14;;;;;;;11.12;8.15;;;-2.10;99.90;;;;;;476813;249;29125;-72
2022/03/04 03:41:16;;;;;;;10.63;7.53;;;-2.10;99.90;;;;;;476816;249;27576;-73
2022/03/04 03:43:17;;;;;;;9.93;6.45;;;-2.10;99.90;;;;;;476796;249;27574;-72
2022/03/04 03:45:18;;;;;;;7.87;6.65;;;-2.10;99.90;;;;;;476801;249;27570;-73
2022/03/04 03:47:19;;;;;;;9.25;7.28;;;-2.10;99.90;;;;;;476825;249;27899;-73
2022/03/04 03:49:21;;;;;;;8.88;7.45;;;-2.10;99.90;;;;;;476808;249;27665;-72
2022/03/04 03:51:22;;;;;;;8.85;7.07;;;-2.20;99.90;;;;;;476811;249;27536;-72
2022/03/04 03:53:23;;;;;;;9.18;6.78;;;-2.20;99.90;;;;;;476779;249;28018;-71
2022/03/04 03:55:24;;;;;;;10.45;6.90;;;-2.20;99.90;;;;;;476791;249;28162;-72
2022/03/04 03:57:26;;;;;;;7.85;6.75;;;-2.20;99.90;;;;;;476815;249;27661;-75
2022/03/04 03:59:27;;;;;;;10.10;6.65;;;-2.20;99.90;;;;;;476811;249;27653;-72
2022/03/04 04:01:28;;;;;;;8.63;6.30;;;-2.10;99.90;;;;;;476807;249;27558;-73
2022/03/04 04:03:29;;;;;;;7.15;6.05;;;-2.00;99.90;;;;;;476787;249;27532;-72
2022/03/04 04:05:31;;;;;;;8.80;6.40;;;-2.00;99.90;;;;;;476797;249;27388;-72
2022/03/04 04:07:32;;;;;;;6.60;5.82;;;-2.10;99.90;;;;;;476807;249;27559;-75
2022/03/04 04:09:33;;;;;;;8.45;5.90;;;-2.00;99.90;;;;;;476812;248;27519;-72
2022/03/04 04:11:35;;;;;;;7.55;5.40;;;-2.00;99.90;;;;;;476824;249;28022;-72
2022/03/04 04:13:36;;;;;;;7.12;5.60;;;-2.00;99.90;;;;;;476793;249;28069;-72
2022/03/04 04:15:37;;;;;;;6.60;5.85;;;-2.10;99.90;;;;;;476800;249;28138;-74
2022/03/04 04:17:38;;;;;;;7.25;6.20;;;-2.20;99.90;;;;;;476833;249;27567;-73
2022/03/04 04:19:39;;;;;;;8.30;6.10;;;-2.20;99.90;;;;;;476803;249;27510;-72
2022/03/04 04:21:41;;;;;;;8.20;6.30;;;-2.30;99.90;;;;;;476752;249;27540;-73
2022/03/04 04:23:42;;;;;;;10.05;6.15;;;-2.40;99.90;;;;;;476788;249;27558;-74
2022/03/04 04:25:43;;;;;;;6.87;5.78;;;-2.40;99.90;;;;;;476806;249;27528;-73
2022/03/04 04:27:44;;;;;;;8.65;5.97;;;-2.40;99.90;;;;;;476810;249;27583;-75
2022/03/04 04:29:46;;;;;;;7.90;6.47;;;-2.40;99.90;;;;;;476813;249;27524;-72
2022/03/04 04:31:47;;;;;;;6.82;5.45;;;-2.40;99.90;;;;;;476810;249;28013;-72
2022/03/04 04:33:48;;;;;;;9.05;6.60;;;-2.50;99.90;;;;;;476808;249;28006;-72
2022/03/04 04:35:49;;;;;;;8.60;6.35;;;-2.60;99.90;;;;;;476785;249;27985;-72
2022/03/04 04:37:51;;;;;;;7.47;6.03;;;-2.60;99.90;;;;;;476827;249;27532;-74
2022/03/04 04:39:52;;;;;;;9.10;6.82;;;-2.60;99.90;;;;;;476815;249;27502;-72
2022/03/04 04:41:53;;;;;;;8.95;6.10;;;-2.50;99.90;;;;;;476785;249;27522;-72
2022/03/04 04:43:55;;;;;;;8.43;6.10;;;-2.40;99.90;;;;;;476806;249;27514;-72
2022/03/04 04:45:56;;;;;;;6.80;6.10;;;-2.40;99.90;;;;;;476853;249;27544;-72
2022/03/04 04:47:57;;;;;;;9.25;6.70;;;-2.40;99.90;;;;;;476840;249;27602;-73
2022/03/04 04:49:58;;;;;;;10.75;6.90;;;-2.30;99.90;;;;;;476818;249;27519;-72
2022/03/04 04:52:00;;;;;;;6.62;5.70;;;-2.30;99.90;;;;;;476850;249;28034;-72
2022/03/04 04:54:01;;;;;;;7.50;6.25;;;-2.20;99.90;;;;;;476837;249;29798;-72
2022/03/04 04:56:02;;;;;;;6.22;5.60;;;-2.20;99.90;;;;;;476862;249;27548;-72
2022/03/04 04:58:03;;;;;;;7.72;6.15;;;-2.10;99.90;;;;;;476858;249;27646;-73
2022/03/04 05:00:05;;;;;;;7.37;5.65;;;-2.10;99.90;;;;;;476862;249;27397;-72
2022/03/04 05:02:06;;;;;;;6.93;5.47;;;-2.10;99.90;;;;;;476841;249;27564;-73
2022/03/04 05:04:07;;;;;;;7.40;5.68;;;-2.20;99.90;;;;;;476837;249;27571;-72
2022/03/04 05:06:08;;;;;;;6.25;5.65;;;-2.30;99.90;;;;;;476794;249;27597;-73
2022/03/04 05:08:10;;;;;;;7.93;6.15;;;-2.30;99.90;;;;;;476890;249;27466;-73
2022/03/04 05:10:12;;;;;;;7.18;6.00;;;-2.40;99.90;;;;;;476841;249;27522;-72
2022/03/04 05:12:12;;;;;;;8.05;6.43;;;-2.60;99.90;;;;;;476780;249;28068;-72
2022/03/04 05:14:13;;;;;;;9.30;6.65;;;-2.70;99.90;;;;;;476838;249;28744;-72
2022/03/04 05:16:15;;;;;;;10.25;6.15;;;-2.80;99.90;;;;;;476845;249;27412;-72
2022/03/04 05:18:16;;;;;;;9.52;7.10;;;-2.80;99.90;;;;;;476834;249;27420;-73
2022/03/04 05:20:17;;;;;;;8.30;7.32;;;-2.70;99.90;;;;;;476833;249;27555;-72
2022/03/04 05:22:18;;;;;;;8.07;6.82;;;-2.70;99.90;;;;;;476819;249;27561;-72
2022/03/04 05:24:20;;;;;;;9.77;7.40;;;-2.60;99.90;;;;;;476813;249;27306;-73
2022/03/04 05:26:21;;;;;;;7.53;6.60;;;-2.50;99.90;;;;;;476842;249;27519;-72
2022/03/04 05:28:22;;;;;;;8.57;7.20;;;-2.40;99.90;;;;;;476781;249;27559;-74
2022/03/04 05:30:23;;;;;;;8.48;7.32;;;-2.40;99.90;;;;;;476775;249;27970;-72
2022/03/04 05:32:25;;;;;;;8.65;6.62;;;-2.40;99.90;;;;;;476812;249;28027;-72
2022/03/04 05:34:26;;;;;;;9.15;6.93;;;-2.50;99.90;;;;;;476798;249;28597;-72
2022/03/04 05:36:27;;;;;;;7.40;6.70;;;-2.60;99.90;;;;;;476843;249;27627;-72
2022/03/04 05:38:28;;;;;;;7.60;6.07;;;-2.60;99.90;;;;;;476824;249;27547;-74
2022/03/04 05:40:30;;;;;;;9.85;7.70;;;-2.70;99.90;;;;;;476809;249;27426;-72
2022/03/04 05:42:31;;;;;;;7.80;6.82;;;-2.70;99.90;;;;;;476803;249;27574;-72
2022/03/04 05:44:32;;;;;;;9.90;6.80;;;-2.70;99.90;;;;;;476821;249;27424;-75
2022/03/04 05:46:33;;;;;;;7.57;5.97;;;-2.70;99.90;;;;;;476828;249;27299;-72
2022/03/04 05:48:35;;;;;;;10.73;7.50;;;-2.70;99.90;;;;;;476831;249;27658;-73
2022/03/04 05:50:36;;;;;;;10.80;7.50;;;-2.60;99.90;;;;;;476805;249;27828;-72
2022/03/04 05:52:37;;;;;;;12.15;8.75;;;-2.60;99.90;;;;;;476795;249;29146;-73
2022/03/04 05:54:38;;;;;;;8.73;7.57;;;-2.50;99.90;;;;;;476786;249;27657;-73
2022/03/04 05:56:40;;;;;;;12.13;8.27;;;-2.50;99.90;;;;;;476820;249;27535;-72
2022/03/04 05:58:41;;;;;;;12.88;8.18;;;-2.50;99.90;;;;;;476826;247;27645;-73
2022/03/04 06:00:43;;;;;;;9.50;6.75;;;-2.40;99.90;;;;;;476813;249;27531;-72
2022/03/04 06:02:43;;;;;;;12.68;9.10;;;-2.40;99.90;;;;;;476802;249;27613;-73
2022/03/04 06:04:45;;;;;;;14.23;9.90;;;-2.40;99.90;;;;;;476821;249;27637;-74
2022/03/04 06:06:46;;;;;;;16.48;10.88;;;-2.20;99.90;;;;;;476826;249;27994;-73
2022/03/04 06:08:48;;;;;;;15.73;10.90;;;-2.10;99.90;;;;;;476813;249;29123;-73
2022/03/04 06:10:48;;;;;;;16.67;10.05;;;-2.10;99.90;;;;;;476787;249;27523;-73
2022/03/04 06:12:50;;;;;;;13.48;10.32;;;-2.20;99.90;;;;;;476823;249;27652;-73
2022/03/04 06:14:51;;;;;;;13.43;9.77;;;-2.40;99.90;;;;;;476839;249;27654;-72
2022/03/04 06:16:52;;;;;;;14.30;9.80;;;-2.50;99.90;;;;;;476830;248;27512;-72
2022/03/04 06:18:54;;;;;;;14.25;10.65;;;-2.60;99.90;;;;;;476854;249;27548;-73
2022/03/04 06:20:55;;;;;;;13.32;9.55;;;-2.70;99.90;;;;;;476848;248;27830;-72
2022/03/04 06:22:56;;;;;;;15.73;10.85;;;-2.60;99.90;;;;;;476836;249;27979;-72
2022/03/04 06:24:57;;;;;;;13.43;9.85;;;-2.60;99.90;;;;;;476868;247;27440;-74
2022/03/04 06:26:59;;;;;;;15.00;10.30;;;-2.60;99.90;;;;;;476852;249;27380;-73
2022/03/04 06:29:00;;;;;;;12.48;8.65;;;-2.60;99.90;;;;;;476827;247;27646;-73
2022/03/04 06:31:01;;;;;;;14.05;9.30;;;-2.50;99.90;;;;;;476824;249;27329;-72
2022/03/04 06:35:22;;;;;;;10.27;8.25;;;-2.50;99.90;;;;;;476820;249;28050;-72
2022/03/04 06:37:23;;;;;;;13.07;8.90;;;-2.50;99.90;;;;;;476809;249;29062;-72
2022/03/04 06:39:25;;;;;;;13.60;9.27;;;-2.50;99.90;;;;;;476803;249;27626;-73
2022/03/04 06:41:26;;;;;;;9.85;8.20;;;-2.50;99.90;;;;;;476843;249;27579;-75
2022/03/04 06:43:27;;;;;;;13.10;8.48;;;-2.40;99.90;;;;;;476800;249;27515;-73
2022/03/04 06:45:28;;;;;;;11.68;8.70;;;-2.40;99.90;;;;;;476839;249;27571;-73
2022/03/04 06:47:30;;;;;;;11.15;8.23;;;-2.40;99.90;;;;;;476797;249;27592;-73
2022/03/04 06:49:31;;;;;;;10.65;7.53;;;-2.30;99.90;;;;;;476792;249;27545;-72
2022/03/04 06:51:32;;;;;;;17.85;9.73;;;-2.30;99.90;;;;;;476821;249;28117;-74
2022/03/04 06:53:33;;;;;;;19.05;10.65;;;-2.10;99.90;;;;;;476803;249;29184;-72
2022/03/04 06:55:35;;;;;;;17.33;10.80;;;-2.10;99.90;;;;;;476814;249;27539;-73
2022/03/04 06:57:36;;;;;;;16.05;10.90;;;-2.00;99.90;;;;;;476808;249;27596;-72
2022/03/04 06:59:37;;;;;;;17.83;10.95;;;-1.90;99.90;;;;;;476827;249;27524;-72
2022/03/04 07:01:38;;;;;;;18.15;11.93;;;-1.90;99.90;;;;;;476831;249;27557;-74
2022/03/04 07:03:40;;;;;;;17.08;11.52;;;-1.80;99.90;;;;;;476806;249;28061;-72
2022/03/04 07:05:43;;;;;;;19.62;12.73;;;-1.80;99.90;;;;;;476818;249;29218;-73
2022/03/04 07:07:42;;;;;;;24.55;14.80;;;-1.70;99.90;;;;;;476676;249;27653;-72
2022/03/04 07:09:43;;;;;;;23.08;14.00;;;-1.60;99.90;;;;;;476819;249;27499;-72
2022/03/04 07:11:45;;;;;;;19.90;13.57;;;-1.60;99.90;;;;;;476820;249;27575;-74
2022/03/04 07:13:46;;;;;;;21.40;12.90;;;-1.50;99.90;;;;;;476824;249;27546;-72
2022/03/04 07:15:48;;;;;;;21.95;13.15;;;-1.50;99.90;;;;;;476805;249;27577;-72
2022/03/04 07:17:48;;;;;;;21.83;13.23;;;-1.50;99.90;;;;;;476818;249;28022;-72
2022/03/04 07:19:50;;;;;;;25.30;13.93;;;-1.40;99.90;;;;;;476814;249;27633;-72
2022/03/04 07:21:51;;;;;;;23.17;13.60;;;-1.40;99.90;;;;;;476804;248;27578;-74
2022/03/04 07:23:52;;;;;;;26.30;14.48;;;-1.40;99.90;;;;;;476810;249;27498;-72
2022/03/04 07:25:53;;;;;;;26.42;14.05;;;-1.30;99.90;;;;;;476804;249;27590;-72
2022/03/04 07:27:55;;;;;;;24.92;14.57;;;-1.20;99.90;;;;;;476809;249;27609;-72
2022/03/04 07:29:56;;;;;;;25.20;13.48;;;-1.10;99.90;;;;;;476803;249;28035;-72
2022/03/04 07:31:57;;;;;;;24.08;13.15;;;-1.20;99.90;;;;;;476802;249;28127;-73
2022/03/04 07:33:58;;;;;;;23.98;13.55;;;-1.20;99.90;;;;;;476770;249;27554;-72
2022/03/04 07:36:01;;;;;;;22.33;13.62;;;-1.00;99.90;;;;;;476797;249;27581;-72
2022/03/04 07:38:02;;;;;;;22.90;12.82;;;-0.90;99.90;;;;;;476792;249;27571;-72
2022/03/04 07:40:02;;;;;;;18.52;11.88;;;-0.90;99.90;;;;;;476883;249;27588;-73
2022/03/04 07:42:04;;;;;;;21.15;12.95;;;-0.70;99.90;;;;;;476824;249;28117;-73
2022/03/04 07:44:05;;;;;;;21.58;12.15;;;-0.60;99.90;;;;;;476788;249;28038;-72
2022/03/04 07:46:06;;;;;;;22.50;14.10;;;-0.60;99.90;;;;;;476802;249;27631;-73
2022/03/04 07:48:07;;;;;;;22.75;12.90;;;-0.10;99.90;;;;;;476835;249;27536;-72
2022/03/04 07:50:09;;;;;;;23.15;15.18;;;0.20;99.90;;;;;;476836;249;27545;-72
2022/03/04 07:52:10;;;;;;;25.55;14.50;;;0.40;99.90;;;;;;476809;249;27552;-73
2022/03/04 07:54:11;;;;;;;26.00;16.70;;;0.70;99.90;;;;;;476838;249;27606;-72
2022/03/04 07:56:12;;;;;;;25.15;15.10;;;0.90;99.90;;;;;;476834;249;27996;-72
2022/03/04 07:58:14;;;;;;;26.95;16.27;;;0.90;99.90;;;;;;476869;249;28367;-72
2022/03/04 08:00:15;;;;;;;24.98;15.68;;;0.90;99.90;;;;;;476856;249;28066;-73
2022/03/04 08:02:16;;;;;;;25.75;14.52;;;1.10;99.90;;;;;;476909;249;28017;-74
2022/03/04 08:04:17;;;;;;;25.27;15.32;;;1.20;99.90;;;;;;476823;249;27512;-72
2022/03/04 08:06:19;;;;;;;24.77;14.20;;;1.20;99.90;;;;;;476792;249;27538;-73
2022/03/04 08:08:20;;;;;;;25.15;15.35;;;1.10;99.90;;;;;;476907;249;27539;-72
2022/03/04 08:10:21;;;;;;;28.45;16.27;;;1.20;99.90;;;;;;476972;249;27526;-73
2022/03/04 08:12:22;;;;;;;23.45;14.93;;;1.40;99.90;;;;;;476901;249;27554;-73
2022/03/04 08:14:24;;;;;;;26.48;15.50;;;1.50;99.90;;;;;;476890;249;27944;-72
2022/03/04 08:16:25;;;;;;;26.35;14.98;;;1.50;99.90;;;;;;476808;249;28028;-73
2022/03/04 08:18:26;;;;;;;25.25;15.82;;;1.50;99.90;;;;;;476897;249;27568;-75
2022/03/04 08:20:31;;;;;;;23.60;14.48;;;1.60;99.90;;;;;;476834;249;27530;-72
2022/03/04 08:22:31;;;;;;;23.48;14.57;;;1.50;99.90;;;;;;476731;249;27549;-72
2022/03/04 08:24:32;;;;;;;26.77;15.35;;;1.40;99.90;;;;;;476850;249;27960;-72
2022/03/04 08:26:33;;;;;;;22.62;14.20;;;1.60;99.90;;;;;;476840;249;28096;-72
2022/03/04 08:28:35;;;;;;;25.67;13.93;;;1.60;99.90;;;;;;476854;249;27587;-75
2022/03/04 08:30:36;;;;;;;21.85;13.73;;;1.60;99.90;;;;;;476820;249;27525;-73
2022/03/04 08:32:37;;;;;;;26.10;16.17;;;1.60;99.90;;;;;;476831;249;27626;-72
2022/03/04 08:34:38;;;;;;;27.80;15.27;;;1.90;99.90;;;;;;476812;247;27643;-72
2022/03/04 08:36:40;;;;;;;25.85;16.23;;;2.00;99.90;;;;;;476799;249;27650;-72
2022/03/04 08:38:41;;;;;;;27.40;15.93;;;2.00;99.90;;;;;;476851;249;27626;-75
2022/03/04 08:40:42;;;;;;;27.45;15.32;;;2.10;99.90;;;;;;476849;249;28047;-72
2022/03/04 08:42:43;;;;;;;26.48;15.85;;;2.30;99.90;;;;;;476850;249;29126;-72
2022/03/04 08:44:45;;;;;;;26.90;16.10;;;2.30;99.90;;;;;;476822;249;27513;-72
2022/03/04 08:46:47;;;;;;;27.52;16.50;;;2.40;99.90;;;;;;476832;249;27641;-72
2022/03/04 08:48:47;;;;;;;33.35;17.30;;;2.50;99.90;;;;;;476801;249;27556;-75
2022/03/04 08:50:48;;;;;;;28.27;16.45;;;2.50;99.90;;;;;;476820;249;27578;-72
2022/03/04 08:52:50;;;;;;;26.60;15.75;;;2.50;99.90;;;;;;476832;249;28064;-73
2022/03/04 08:54:51;;;;;;;28.98;15.50;;;2.60;99.90;;;;;;476819;249;27985;-73
2022/03/04 08:56:52;;;;;;;26.33;15.27;;;2.60;99.90;;;;;;476836;249;28055;-73
2022/03/04 08:58:53;;;;;;;25.37;16.15;;;2.70;99.90;;;;;;476836;249;27648;-75
2022/03/04 09:00:55;;;;;;;31.37;16.85;;;2.70;99.90;;;;;;476835;249;27526;-72
2022/03/04 09:02:56;;;;;;;25.80;15.40;;;2.60;99.90;;;;;;476842;249;27536;-72
2022/03/04 09:04:57;;;;;;;25.45;15.75;;;2.60;99.90;;;;;;476818;249;27566;-72
2022/03/04 09:06:58;;;;;;;25.42;14.95;;;2.70;99.90;;;;;;476817;249;27568;-72
2022/03/04 09:09:00;;;;;;;24.75;15.48;;;2.70;99.90;;;;;;476841;249;28045;-74
2022/03/04 09:11:01;;;;;;;30.17;17.80;;;2.80;99.90;;;;;;476823;249;28054;-73
2022/03/04 09:13:04;;;;;;;27.50;16.15;;;3.00;99.90;;;;;;476800;249;27559;-72
2022/03/04 09:15:03;;;;;;;25.55;15.70;;;3.00;99.90;;;;;;476693;249;27557;-72
2022/03/04 09:17:05;;;;;;;27.13;16.62;;;2.90;99.90;;;;;;476835;249;27646;-73
2022/03/04 09:19:07;;;;;;;29.23;17.58;;;3.00;99.90;;;;;;476812;249;27550;-72
2022/03/04 09:21:08;;;;;;;32.17;17.65;;;3.20;99.90;;;;;;476782;249;27519;-72
2022/03/04 09:23:08;;;;;;;30.83;17.20;;;3.20;99.90;;;;;;476868;249;27567;-72
2022/03/04 09:25:10;;;;;;;30.80;16.87;;;3.20;99.90;;;;;;476832;249;28128;-72
2022/03/04 09:27:11;;;;;;;30.17;17.42;;;3.20;99.90;;;;;;476821;249;27968;-72
2022/03/04 09:29:12;;;;;;;28.73;16.33;;;3.30;99.90;;;;;;476836;249;27562;-72
2022/03/04 09:31:13;;;;;;;25.65;15.95;;;3.40;99.90;;;;;;476839;249;27504;-72
2022/03/04 09:33:15;;;;;;;28.08;16.45;;;3.40;99.90;;;;;;476844;249;27583;-72
2022/03/04 09:35:17;;;;;;;28.38;15.98;;;3.50;99.90;;;;;;476848;249;28015;-75
2022/03/04 09:37:17;;;;;;;24.85;16.02;;;3.50;99.90;;;;;;476814;249;27531;-72
2022/03/04 09:39:19;;;;;;;27.35;16.85;;;3.60;99.90;;;;;;476856;249;27577;-73
2022/03/04 09:41:20;;;;;;;32.03;17.33;;;3.70;99.90;;;;;;476862;249;27980;-72
2022/03/04 09:43:21;;;;;;;30.10;16.55;;;3.70;99.90;;;;;;476783;249;28008;-72
2022/03/04 09:45:22;;;;;;;29.27;16.35;;;3.80;99.90;;;;;;476852;249;27560;-75
2022/03/04 09:47:24;;;;;;;28.67;16.90;;;3.70;99.90;;;;;;476859;249;27598;-72
2022/03/04 09:49:25;;;;;;;29.65;16.92;;;3.80;99.90;;;;;;476858;249;27538;-73
2022/03/04 09:51:27;;;;;;;27.85;16.10;;;3.80;99.90;;;;;;476877;249;27555;-72
2022/03/04 09:53:28;;;;;;;30.17;16.50;;;3.80;99.90;;;;;;476813;249;27596;-72
2022/03/04 09:55:29;;;;;;;29.75;16.95;;;3.90;99.90;;;;;;476869;249;28036;-73
2022/03/04 09:57:30;;;;;;;31.25;17.23;;;4.00;99.90;;;;;;476875;249;27988;-72
2022/03/04 09:59:31;;;;;;;28.00;16.33;;;4.00;99.90;;;;;;476847;249;27562;-73
2022/03/04 10:01:32;;;;;;;31.77;18.08;;;4.00;99.90;;;;;;476860;249;27515;-72
2022/03/04 10:03:34;;;;;;;34.75;17.50;;;4.30;99.90;;;;;;476805;249;27540;-72
2022/03/04 10:05:35;;;;;;;27.65;16.92;;;4.40;99.90;;;;;;476866;249;27555;-75
2022/03/04 10:07:36;;;;;;;39.35;18.85;;;4.30;99.90;;;;;;476871;249;27519;-72
2022/03/04 10:09:37;;;;;;;35.83;19.70;;;4.40;99.90;;;;;;476869;249;28158;-72
2022/03/04 10:11:39;;;;;;;29.77;17.83;;;4.40;99.90;;;;;;476829;249;28037;-72
2022/03/04 10:13:40;;;;;;;33.03;17.25;;;4.40;99.90;;;;;;476822;249;27531;-72
2022/03/04 10:15:41;;;;;;;30.50;17.10;;;4.40;99.90;;;;;;476853;249;27649;-74
2022/03/04 10:17:42;;;;;;;34.03;18.55;;;4.50;99.90;;;;;;476847;249;27506;-72
2022/03/04 10:19:44;;;;;;;29.73;16.87;;;4.50;99.90;;;;;;476838;249;27570;-73
2022/03/04 10:21:45;;;;;;;28.48;15.63;;;4.60;99.90;;;;;;476851;249;27541;-72
2022/03/04 10:23:46;;;;;;;26.95;15.55;;;4.50;99.90;;;;;;476859;249;28074;-72
2022/03/04 10:25:47;;;;;;;29.35;16.35;;;4.50;99.90;;;;;;476857;249;27543;-74
2022/03/04 10:27:49;;;;;;;26.40;15.07;;;4.70;99.90;;;;;;476845;249;27614;-72